Downstream station:
SHEF ID: OSLK1 LABETTE C NR OSWEGO, KS
STATION TYPE:
Regulating: Stage = 20.00, Flow = 5530
PRECIP STAGE RIV-FLOW BAT-LOAD
in ft cfs volt
Ccp-Rev Ccp-Rev Ccp-Rev Ccp-Rev
(US/Central)
04/20 00:00 0.00 6.12 34 12.89
04/20 01:00 0.00 6.12 34 12.81
04/20 02:00 0.00 6.13 35 12.81
04/20 03:00 0.00 6.11 33 12.73
04/20 04:00 0.00 6.10 32 12.73
04/20 05:00 ---- 6.10 32 ----
04/20 06:00 0.00 6.12 34 12.73
04/20 07:00 0.00 6.09 31 12.73
04/20 08:00 0.00 6.10 32 12.65
04/20 09:00 0.02 6.12 34 12.65
04/20 10:00 0.04 6.10 32 12.65
04/20 11:00 0.04 6.09 31 12.89
04/20 12:00 0.02 6.10 32 13.37
04/20 13:00 0.01 6.10 32 13.44
04/20 14:00 0.00 6.09 31 13.53
04/20 15:00 0.00 6.09 31 13.60
04/20 16:00 0.00 6.09 31 13.53
04/20 17:00 0.00 6.08 30 13.60
04/20 18:00 0.00 6.07 29 13.53
04/20 19:00 0.00 6.07 29 13.44
04/20 20:00 0.00 6.05 28 13.44
04/20 21:00 0.00 6.06 28 12.97
04/20 22:00 0.00 6.06 28 12.81
04/20 23:00 0.00 6.05 28 12.81